createdAt,value
2017-09-12T00:01:04.961Z,14.96
2017-09-12T00:02:13.908Z,14.98
2017-09-12T00:03:22.755Z,15.01
2017-09-12T00:04:31.599Z,15.02
2017-09-12T00:05:40.444Z,14.96
2017-09-12T00:06:49.289Z,14.96
2017-09-12T00:07:58.183Z,15.01
2017-09-12T00:09:07.027Z,15.03
2017-09-12T00:10:15.872Z,14.98
2017-09-12T00:11:24.718Z,15.06
2017-09-12T00:12:33.564Z,14.95
2017-09-12T00:13:43.044Z,15.02
2017-09-12T00:14:51.887Z,14.95
2017-09-12T00:16:00.730Z,14.95
2017-09-12T00:17:09.577Z,14.94
2017-09-12T00:18:18.421Z,14.94
2017-09-12T00:19:27.416Z,14.96
2017-09-12T00:20:36.260Z,14.91
2017-09-12T00:21:45.104Z,14.94
2017-09-12T00:22:53.948Z,14.95
2017-09-12T00:24:02.795Z,14.91
2017-09-12T00:25:11.789Z,14.96
2017-09-12T00:26:20.634Z,15.02
2017-09-12T00:27:29.809Z,14.92
2017-09-12T00:28:38.657Z,14.89
2017-09-12T00:29:47.831Z,14.83
2017-09-12T00:30:56.829Z,14.77
2017-09-12T00:32:05.670Z,14.78
2017-09-12T00:33:14.515Z,14.77
2017-09-12T00:34:23.358Z,14.69
2017-09-12T00:35:32.537Z,14.69
2017-09-12T00:36:41.381Z,14.68
2017-09-12T00:37:50.225Z,14.72
2017-09-12T00:38:59.069Z,14.65
2017-09-12T00:40:07.916Z,14.64
2017-09-12T00:41:16.761Z,14.75
2017-09-12T00:42:25.652Z,14.61
2017-09-12T00:43:34.497Z,14.62
2017-09-12T00:44:43.341Z,14.55
2017-09-12T00:45:52.185Z,14.52
2017-09-12T00:47:01.030Z,14.62
2017-09-12T00:48:09.872Z,14.54
2017-09-12T00:49:18.717Z,14.54
2017-09-12T00:50:27.564Z,14.52
2017-09-12T00:51:36.408Z,14.5
2017-09-12T00:52:45.252Z,14.57
2017-09-12T00:53:54.143Z,14.58
2017-09-12T00:55:02.988Z,14.52
2017-09-12T00:56:11.830Z,14.55
2017-09-12T00:57:20.677Z,14.5
2017-09-12T00:58:29.857Z,14.54
2017-09-12T00:59:39.002Z,14.57
2017-09-12T01:00:47.846Z,14.52
2017-09-12T01:01:56.689Z,14.52
2017-09-12T01:03:05.535Z,14.58
2017-09-12T01:04:14.379Z,14.58
2017-09-12T01:05:23.522Z,14.54
2017-09-12T01:06:32.366Z,14.54
2017-09-12T01:07:41.208Z,14.52
2017-09-12T01:08:50.052Z,14.64
2017-09-12T01:09:58.895Z,14.54
2017-09-12T01:11:07.738Z,14.57
2017-09-12T01:12:16.587Z,14.54
2017-09-12T01:13:25.424Z,14.47
2017-09-12T01:14:34.269Z,14.51
2017-09-12T01:15:43.444Z,14.46
2017-09-12T01:16:52.436Z,14.43
2017-09-12T01:18:01.280Z,14.39
2017-09-12T01:19:10.123Z,14.37
2017-09-12T01:20:18.973Z,14.37
2017-09-12T01:21:27.809Z,14.28
2017-09-12T01:22:36.705Z,14.4
2017-09-12T01:23:45.547Z,14.39
2017-09-12T01:24:54.392Z,14.43
2017-09-12T01:26:03.567Z,14.45
2017-09-12T01:27:12.410Z,14.42
2017-09-12T01:28:21.352Z,14.35
2017-09-12T01:29:30.193Z,14.27
2017-09-12T01:30:39.036Z,14.4
2017-09-12T01:31:47.877Z,14.29
2017-09-12T01:32:56.720Z,14.33
2017-09-12T01:34:05.613Z,14.33
2017-09-12T01:35:14.793Z,14.29
2017-09-12T01:36:23.643Z,14.28
2017-09-12T01:37:32.484Z,14.39
2017-09-12T01:38:41.324Z,14.35
2017-09-12T01:39:50.316Z,14.37
2017-09-12T01:40:59.157Z,14.32
2017-09-12T01:42:08.001Z,14.29
2017-09-12T01:43:16.848Z,14.28
2017-09-12T01:44:25.690Z,14.27
2017-09-12T01:45:34.632Z,14.24
2017-09-12T01:46:43.471Z,14.27
2017-09-12T01:47:52.316Z,14.21
2017-09-12T01:49:01.163Z,14.33
2017-09-12T01:50:10.004Z,14.28
2017-09-12T01:51:19.098Z,14.36
2017-09-12T01:52:27.941Z,14.27
2017-09-12T01:53:36.783Z,14.22
2017-09-12T01:54:45.627Z,14.42
2017-09-12T01:55:54.470Z,14.36
2017-09-12T01:57:03.461Z,14.39
2017-09-12T01:58:12.302Z,14.29
2017-09-12T01:59:21.147Z,14.35
2017-09-12T02:00:29.989Z,14.45
2017-09-12T02:01:38.834Z,14.51
2017-09-12T02:02:47.829Z,14.51
2017-09-12T02:03:56.674Z,14.45
2017-09-12T02:05:05.520Z,14.55
2017-09-12T02:06:14.361Z,14.46
2017-09-12T02:07:23.203Z,14.5
2017-09-12T02:08:32.298Z,14.51
2017-09-12T02:09:41.138Z,14.45
2017-09-12T02:10:49.980Z,14.46
2017-09-12T02:11:58.824Z,14.45
2017-09-12T02:13:07.668Z,14.47
2017-09-12T02:14:16.559Z,14.47
2017-09-12T02:15:25.405Z,14.46
2017-09-12T02:16:34.248Z,14.45
2017-09-12T02:17:43.432Z,14.4
2017-09-12T02:18:52.272Z,14.36
2017-09-12T02:20:01.217Z,14.36
2017-09-12T02:21:10.391Z,14.27
2017-09-12T02:22:19.234Z,14.36
2017-09-12T02:23:28.076Z,14.29
2017-09-12T02:24:36.921Z,14.43
2017-09-12T02:25:45.765Z,14.42
2017-09-12T02:26:54.945Z,14.42
2017-09-12T02:28:03.820Z,14.39
2017-09-12T02:29:13.346Z,14.43
2017-09-12T02:30:22.189Z,14.46
2017-09-12T02:31:31.133Z,14.57
2017-09-12T02:32:39.977Z,14.51
2017-09-12T02:33:48.819Z,14.46
2017-09-12T02:34:57.665Z,14.5
2017-09-12T02:36:06.511Z,14.47
2017-09-12T02:37:15.841Z,14.4
2017-09-12T02:38:24.686Z,14.51
2017-09-12T02:39:33.529Z,14.5
2017-09-12T02:40:42.374Z,14.46
2017-09-12T02:41:51.218Z,14.51
2017-09-12T02:43:00.211Z,14.47
2017-09-12T02:44:09.051Z,14.47
2017-09-12T02:45:17.892Z,14.52
2017-09-12T02:46:26.734Z,14.58
2017-09-12T02:47:35.579Z,14.58
2017-09-12T02:48:44.419Z,14.57
2017-09-12T02:49:53.262Z,14.55
2017-09-12T02:51:02.104Z,14.57
2017-09-12T02:52:10.944Z,14.55
2017-09-12T02:53:19.785Z,14.55
2017-09-12T02:54:28.778Z,14.57
2017-09-12T02:55:37.624Z,14.61
2017-09-12T02:56:46.798Z,14.6
2017-09-12T02:57:55.638Z,14.51
2017-09-12T02:59:04.481Z,14.55
2017-09-12T03:00:13.478Z,14.57
2017-09-12T03:01:22.319Z,14.54
2017-09-12T03:02:31.161Z,14.54
2017-09-12T03:03:40.336Z,14.55
2017-09-12T03:04:49.178Z,14.52
2017-09-12T03:05:58.273Z,14.54
2017-09-12T03:07:07.117Z,14.6
2017-09-12T03:08:15.961Z,14.61
2017-09-12T03:09:24.807Z,14.52
2017-09-12T03:10:33.983Z,14.52
2017-09-12T03:11:43.026Z,14.55
2017-09-12T03:12:51.871Z,14.57
2017-09-12T03:14:00.714Z,14.61
2017-09-12T03:15:09.557Z,14.57
2017-09-12T03:16:18.401Z,14.58
2017-09-12T03:17:27.293Z,14.57
2017-09-12T03:18:36.136Z,14.54
2017-09-12T03:19:44.983Z,14.57
2017-09-12T03:20:53.826Z,14.54
2017-09-12T03:22:02.667Z,14.61
2017-09-12T03:23:11.661Z,14.55
2017-09-12T03:24:20.504Z,14.57
2017-09-12T03:25:29.348Z,14.61
2017-09-12T03:26:38.190Z,14.57
2017-09-12T03:27:47.033Z,14.65
2017-09-12T03:28:56.026Z,14.57
2017-09-12T03:30:04.870Z,14.65
2017-09-12T03:31:13.715Z,14.75
2017-09-12T03:32:22.560Z,14.61
2017-09-12T03:33:31.406Z,14.7
2017-09-12T03:34:40.737Z,14.58
2017-09-12T03:35:49.913Z,14.64
2017-09-12T03:36:58.756Z,14.65
2017-09-12T03:38:07.932Z,14.6
2017-09-12T03:39:16.776Z,14.7
2017-09-12T03:40:25.764Z,14.81
2017-09-12T03:41:34.609Z,14.8
2017-09-12T03:42:43.460Z,14.64
2017-09-12T03:43:52.296Z,14.68
2017-09-12T03:45:01.505Z,14.7
2017-09-12T03:46:10.595Z,14.64
2017-09-12T03:47:19.442Z,14.65
2017-09-12T03:48:28.281Z,14.6
2017-09-12T03:49:37.134Z,14.69
2017-09-12T03:50:45.972Z,14.73
2017-09-12T03:51:55.147Z,14.72
2017-09-12T03:53:03.988Z,14.8
2017-09-12T03:54:12.833Z,14.69
2017-09-12T03:55:21.679Z,14.68
2017-09-12T03:56:30.521Z,14.72
2017-09-12T03:57:39.463Z,14.77
2017-09-12T03:58:48.304Z,14.7
2017-09-12T03:59:57.148Z,14.62
2017-09-12T04:01:05.991Z,14.73
2017-09-12T04:02:14.836Z,14.62
2017-09-12T04:03:23.828Z,14.68
2017-09-12T04:04:32.672Z,14.61
2017-09-12T04:05:41.516Z,14.78
2017-09-12T04:06:50.361Z,14.78
2017-09-12T04:07:59.207Z,14.73
2017-09-12T04:09:08.539Z,14.62
2017-09-12T04:10:17.713Z,14.64
2017-09-12T04:11:26.553Z,14.64
2017-09-12T04:12:35.396Z,14.64
2017-09-12T04:13:44.239Z,14.58
2017-09-12T04:14:53.433Z,14.64
2017-09-12T04:16:02.276Z,14.64
2017-09-12T04:17:11.119Z,14.61
2017-09-12T04:18:19.962Z,14.64
2017-09-12T04:19:28.803Z,14.64
2017-09-12T04:20:37.698Z,14.7
2017-09-12T04:21:46.540Z,14.62
2017-09-12T04:22:55.384Z,14.62
2017-09-12T04:24:04.227Z,14.62
2017-09-12T04:25:13.070Z,14.62
2017-09-12T04:26:22.213Z,14.6
2017-09-12T04:27:31.057Z,14.58
2017-09-12T04:28:39.900Z,14.62
2017-09-12T04:29:48.743Z,14.58
2017-09-12T04:30:57.587Z,14.65
2017-09-12T04:32:06.534Z,14.57
2017-09-12T04:33:15.376Z,14.6
2017-09-12T04:34:24.218Z,14.5
2017-09-12T04:35:33.061Z,14.46
2017-09-12T04:36:41.908Z,14.32
2017-09-12T04:37:51.002Z,14.29
2017-09-12T04:38:59.845Z,14.21
2017-09-12T04:40:08.688Z,14.2
2017-09-12T04:41:17.533Z,14.18
2017-09-12T04:42:26.373Z,14.09
2017-09-12T04:43:35.615Z,14.1
2017-09-12T04:44:44.458Z,14.1
2017-09-12T04:45:53.298Z,14.07
2017-09-12T04:47:02.145Z,14.02
2017-09-12T04:48:10.988Z,13.92
2017-09-12T04:49:19.982Z,14.02
2017-09-12T04:50:28.824Z,13.92
2017-09-12T04:51:37.667Z,13.95
2017-09-12T04:52:46.511Z,14.02
2017-09-12T04:53:55.353Z,13.99
2017-09-12T04:55:04.344Z,13.87
2017-09-12T04:56:13.516Z,13.97
2017-09-12T04:57:22.361Z,13.89
2017-09-12T04:58:31.205Z,13.79
2017-09-12T04:59:40.047Z,13.88
2017-09-12T05:00:49.042Z,13.81
2017-09-12T05:01:57.887Z,13.82
2017-09-12T05:03:06.735Z,13.85
2017-09-12T05:04:15.581Z,13.84
2017-09-12T05:05:24.427Z,13.79
2017-09-12T05:06:33.421Z,13.85
2017-09-12T05:07:42.267Z,13.78
2017-09-12T05:08:51.113Z,13.82
2017-09-12T05:09:59.957Z,13.81
2017-09-12T05:11:08.803Z,13.81
2017-09-12T05:12:17.798Z,13.78
2017-09-12T05:13:26.645Z,13.71
2017-09-12T05:14:35.491Z,13.79
2017-09-12T05:15:44.341Z,13.84
2017-09-12T05:16:53.188Z,13.77
2017-09-12T05:18:02.082Z,13.84
2017-09-12T05:19:10.930Z,13.73
2017-09-12T05:20:19.776Z,13.77
2017-09-12T05:21:28.623Z,13.73
2017-09-12T05:22:37.473Z,13.78
2017-09-12T05:23:46.467Z,13.78
2017-09-12T05:24:55.315Z,13.77
2017-09-12T05:26:04.162Z,13.78
2017-09-12T05:27:13.007Z,13.78
2017-09-12T05:28:21.852Z,13.81
2017-09-12T05:29:30.705Z,13.79
2017-09-12T05:30:39.544Z,13.81
2017-09-12T05:31:48.720Z,13.81
2017-09-12T05:32:57.565Z,13.79
2017-09-12T05:34:06.417Z,13.78
2017-09-12T05:35:15.260Z,13.88
2017-09-12T05:36:24.106Z,13.95
2017-09-12T05:37:32.951Z,13.92
2017-09-12T05:38:42.129Z,13.85
2017-09-12T05:39:51.133Z,13.85
2017-09-12T05:41:00.032Z,13.82
2017-09-12T05:42:09.554Z,13.84
2017-09-12T05:43:18.482Z,13.85
2017-09-12T05:44:27.425Z,13.84
2017-09-12T05:45:36.359Z,13.85
2017-09-12T05:46:45.263Z,13.84
2017-09-12T05:47:54.143Z,13.87
2017-09-12T05:49:02.992Z,13.95
2017-09-12T05:50:11.834Z,13.96
2017-09-12T05:51:20.679Z,13.97
2017-09-12T05:52:29.523Z,14.02
2017-09-12T05:53:38.365Z,14
2017-09-12T05:54:47.537Z,13.97
2017-09-12T05:55:56.383Z,13.99
2017-09-12T05:57:05.228Z,13.99
2017-09-12T05:58:14.072Z,14
2017-09-12T05:59:23.248Z,13.97
2017-09-12T06:00:32.096Z,13.99
2017-09-12T06:01:40.943Z,14.02
2017-09-12T06:02:49.786Z,13.92
2017-09-12T06:03:58.630Z,14.02
2017-09-12T06:05:08.106Z,13.99
2017-09-12T06:06:16.947Z,13.99
2017-09-12T06:07:25.792Z,13.99
2017-09-12T06:08:34.640Z,14.03
2017-09-12T06:09:43.485Z,14.07
2017-09-12T06:10:52.479Z,14.02
2017-09-12T06:12:01.322Z,14.1
2017-09-12T06:13:10.166Z,14.07
2017-09-12T06:14:19.009Z,14.12
2017-09-12T06:15:27.853Z,14.22
2017-09-12T06:16:36.850Z,14.21
2017-09-12T06:17:45.693Z,14.17
2017-09-12T06:18:54.535Z,14.29
2017-09-12T06:20:03.711Z,14.17
2017-09-12T06:21:12.556Z,14.15
2017-09-12T06:22:21.552Z,14.24
2017-09-12T06:23:30.396Z,14.14
2017-09-12T06:24:39.241Z,14.25
2017-09-12T06:25:48.086Z,14.25
2017-09-12T06:26:57.260Z,14.27
2017-09-12T06:28:06.355Z,14.28
2017-09-12T06:29:15.200Z,14.21
2017-09-12T06:30:24.043Z,14.33
2017-09-12T06:31:32.887Z,14.27
2017-09-12T06:32:41.731Z,14.24
2017-09-12T06:33:50.727Z,14.27
2017-09-12T06:34:59.569Z,14.28
2017-09-12T06:36:08.414Z,14.39
2017-09-12T06:37:17.257Z,14.35
2017-09-12T06:38:26.099Z,14.32
2017-09-12T06:39:35.092Z,14.39
2017-09-12T06:40:43.938Z,14.42
2017-09-12T06:41:52.783Z,14.4
2017-09-12T06:43:01.627Z,14.5
2017-09-12T06:44:10.470Z,14.47
2017-09-12T06:45:19.667Z,14.47
2017-09-12T06:46:28.509Z,14.47
2017-09-12T06:47:37.351Z,14.52
2017-09-12T06:48:46.200Z,14.58
2017-09-12T06:49:55.039Z,14.58
2017-09-12T06:51:04.031Z,14.55
2017-09-12T06:52:12.879Z,14.55
2017-09-12T06:53:21.721Z,14.58
2017-09-12T06:54:30.564Z,14.58
2017-09-12T06:55:39.411Z,14.58
2017-09-12T06:56:48.306Z,14.64
2017-09-12T06:57:57.150Z,14.57
2017-09-12T06:59:05.995Z,14.55
2017-09-12T07:00:14.847Z,14.62
2017-09-12T07:01:23.693Z,14.61
2017-09-12T07:02:32.589Z,14.54
2017-09-12T07:03:41.437Z,14.6
2017-09-12T07:04:50.283Z,14.52
2017-09-12T07:05:59.130Z,14.6
2017-09-12T07:07:07.980Z,14.62
2017-09-12T07:08:17.096Z,14.5
2017-09-12T07:09:26.060Z,14.57
2017-09-12T07:10:36.579Z,14.65
2017-09-12T07:11:45.459Z,14.6
2017-09-12T07:12:54.662Z,14.65
2017-09-12T07:14:03.606Z,14.57
2017-09-12T07:15:12.449Z,14.52
2017-09-12T07:16:21.625Z,14.64
2017-09-12T07:17:30.765Z,14.57
2017-09-12T07:18:39.611Z,14.57
2017-09-12T07:19:48.887Z,14.57
2017-09-12T07:20:57.729Z,14.57
2017-09-12T07:22:06.911Z,14.6
2017-09-12T07:23:15.757Z,14.55
2017-09-12T07:24:24.599Z,14.62
2017-09-12T07:25:33.544Z,14.73
2017-09-12T07:26:42.388Z,14.64
2017-09-12T07:27:51.569Z,14.78
2017-09-12T07:29:00.414Z,14.8
2017-09-12T07:30:09.260Z,14.89
2017-09-12T07:31:18.254Z,14.88
2017-09-12T07:32:27.112Z,14.91
2017-09-12T07:33:35.965Z,14.96
2017-09-12T07:34:44.818Z,15.01
2017-09-12T07:35:53.665Z,14.96
2017-09-12T07:37:02.573Z,15.09
2017-09-12T07:38:11.432Z,14.96
2017-09-12T07:39:20.280Z,15.02
2017-09-12T07:40:29.126Z,15.02
2017-09-12T07:41:37.973Z,15.1
2017-09-12T07:42:46.922Z,15.07
2017-09-12T07:43:55.769Z,15.11
2017-09-12T07:45:04.616Z,15.09
2017-09-12T07:46:13.460Z,15.1
2017-09-12T07:47:22.306Z,15.14
2017-09-12T07:48:31.311Z,15.14
2017-09-12T07:49:40.568Z,15.16
2017-09-12T07:50:49.555Z,15.19
2017-09-12T07:51:58.406Z,15.17
2017-09-12T07:53:07.252Z,15.2
2017-09-12T07:54:16.251Z,15.27
2017-09-12T07:55:25.361Z,15.32
2017-09-12T07:56:34.210Z,15.25
2017-09-12T07:57:43.055Z,15.31
2017-09-12T07:58:51.903Z,15.31
2017-09-12T08:00:01.049Z,15.21
2017-09-12T08:01:09.897Z,15.27
2017-09-12T08:02:18.748Z,15.28
2017-09-12T08:03:27.592Z,15.2
2017-09-12T08:04:36.473Z,15.27
2017-09-12T08:05:45.663Z,15.31
2017-09-12T08:06:54.506Z,15.2
2017-09-12T08:08:03.349Z,15.28
2017-09-12T08:09:12.195Z,15.27
2017-09-12T08:10:21.044Z,15.27
2017-09-12T08:11:29.990Z,15.19
2017-09-12T08:12:39.412Z,15.21
2017-09-12T08:13:48.264Z,15.17
2017-09-12T08:14:57.112Z,15.21
2017-09-12T08:16:06.152Z,15.29
2017-09-12T08:17:15.427Z,15.25
2017-09-12T08:18:24.673Z,15.21
2017-09-12T08:19:33.679Z,15.29
2017-09-12T08:20:42.537Z,15.32
2017-09-12T08:21:51.370Z,15.38
2017-09-12T08:23:00.520Z,15.43
2017-09-12T08:24:09.365Z,15.49
2017-09-12T08:25:18.226Z,15.5
2017-09-12T08:26:27.077Z,15.53
2017-09-12T08:27:35.921Z,15.65
2017-09-12T08:28:44.918Z,15.59
2017-09-12T08:29:53.764Z,15.65
2017-09-12T08:31:02.656Z,15.67
2017-09-12T08:32:11.860Z,15.67
2017-09-12T08:33:20.707Z,15.69
2017-09-12T08:34:29.649Z,15.65
2017-09-12T08:35:38.859Z,15.65
2017-09-12T08:36:47.705Z,15.8
2017-09-12T08:37:56.565Z,15.75
2017-09-12T08:39:05.414Z,15.76
2017-09-12T08:40:14.420Z,15.69
2017-09-12T08:41:23.316Z,15.76
2017-09-12T08:42:32.160Z,15.82
2017-09-12T08:43:41.007Z,15.82
2017-09-12T08:44:49.854Z,15.87
2017-09-12T08:45:58.804Z,15.8
2017-09-12T08:47:07.646Z,15.94
2017-09-12T08:48:16.513Z,15.96
2017-09-12T08:49:25.362Z,15.97
2017-09-12T08:50:34.222Z,16.01
2017-09-12T08:51:43.296Z,15.96
2017-09-12T08:52:52.114Z,16.04
2017-09-12T08:54:00.960Z,16.05
2017-09-12T08:55:09.805Z,16.12
2017-09-12T08:56:18.651Z,16.21
2017-09-12T08:57:27.647Z,16.14
2017-09-12T08:58:36.490Z,16.24
2017-09-12T08:59:45.340Z,16.28
2017-09-12T09:00:54.190Z,16.33
2017-09-12T09:02:03.038Z,16.38
2017-09-12T09:03:11.970Z,16.33
2017-09-12T09:04:20.930Z,16.24
2017-09-12T09:05:29.782Z,16.3
2017-09-12T09:06:38.994Z,16.33
2017-09-12T09:07:47.856Z,16.33
2017-09-12T09:08:56.851Z,16.31
2017-09-12T09:10:05.705Z,16.39
2017-09-12T09:11:14.552Z,16.35
2017-09-12T09:12:23.398Z,16.46
2017-09-12T09:13:32.244Z,16.5
2017-09-12T09:14:41.364Z,16.5
2017-09-12T09:15:50.228Z,16.5
2017-09-12T09:16:59.099Z,16.49
2017-09-12T09:18:07.956Z,16.48
2017-09-12T09:19:16.816Z,16.58
2017-09-12T09:20:25.816Z,16.56
2017-09-12T09:21:34.664Z,16.71
2017-09-12T09:22:43.517Z,16.67
2017-09-12T09:23:52.393Z,16.66
2017-09-12T09:25:01.285Z,16.6
2017-09-12T09:26:10.309Z,16.52
2017-09-12T09:27:19.157Z,16.68
2017-09-12T09:28:28.070Z,16.56
2017-09-12T09:29:36.916Z,16.71
2017-09-12T09:30:45.761Z,16.68
2017-09-12T09:31:55.096Z,16.66
2017-09-12T09:33:04.318Z,16.75
2017-09-12T09:34:13.231Z,16.63
2017-09-12T09:35:22.095Z,16.67
2017-09-12T09:36:30.943Z,16.71
2017-09-12T09:37:39.840Z,16.76
2017-09-12T09:38:48.703Z,16.81
2017-09-12T09:39:57.553Z,16.93
2017-09-12T09:41:06.400Z,16.94
2017-09-12T09:42:15.259Z,16.98
2017-09-12T09:43:24.210Z,17
2017-09-12T09:44:33.102Z,17.11
2017-09-12T09:45:41.953Z,17.21
2017-09-12T09:46:50.853Z,17.21
2017-09-12T09:47:59.787Z,17.16
2017-09-12T09:49:08.782Z,17.04
2017-09-12T09:50:17.630Z,17.06
2017-09-12T09:51:26.544Z,17.06
2017-09-12T09:52:35.728Z,17.15
2017-09-12T09:53:44.577Z,17.06
2017-09-12T09:54:53.640Z,17.22
2017-09-12T09:56:02.513Z,17.16
2017-09-12T09:57:11.361Z,17.26
2017-09-12T09:58:20.237Z,17.16
2017-09-12T09:59:29.096Z,17.18
2017-09-12T10:00:38.240Z,17.16
2017-09-12T10:01:47.087Z,17.31
2017-09-12T10:02:55.985Z,17.34
2017-09-12T10:04:04.842Z,17.4
2017-09-12T10:05:13.707Z,17.51
2017-09-12T10:06:23.339Z,17.51
2017-09-12T10:07:32.187Z,17.54
2017-09-12T10:08:41.057Z,17.63
2017-09-12T10:09:49.903Z,17.54
2017-09-12T10:10:59.088Z,17.66
2017-09-12T10:12:08.243Z,17.66
2017-09-12T10:13:17.423Z,17.64
2017-09-12T10:14:26.279Z,17.68
2017-09-12T10:15:35.458Z,17.74
2017-09-12T10:16:44.305Z,17.68
2017-09-12T10:17:53.307Z,17.58
2017-09-12T10:19:02.152Z,17.51
2017-09-12T10:20:11.007Z,17.52
2017-09-12T10:21:19.860Z,17.54
2017-09-12T10:22:28.877Z,17.49
2017-09-12T10:23:38.147Z,17.4
2017-09-12T10:24:46.998Z,17.36
2017-09-12T10:25:55.883Z,17.44
2017-09-12T10:27:04.732Z,17.58
2017-09-12T10:28:13.581Z,17.59
2017-09-12T10:29:23.164Z,17.71
2017-09-12T10:30:32.010Z,17.71
2017-09-12T10:31:40.856Z,17.77
2017-09-12T10:32:49.712Z,17.77
2017-09-12T10:33:58.585Z,17.77
2017-09-12T10:35:07.584Z,17.79
2017-09-12T10:36:16.437Z,17.81
2017-09-12T10:37:25.299Z,17.81
2017-09-12T10:38:34.159Z,17.89
2017-09-12T10:39:43.001Z,17.84
2017-09-12T10:40:52.000Z,17.86
2017-09-12T10:42:00.850Z,17.95
2017-09-12T10:43:09.697Z,17.99
2017-09-12T10:44:18.548Z,17.93
2017-09-12T10:45:27.395Z,17.93
2017-09-12T10:46:36.542Z,17.99
2017-09-12T10:47:45.399Z,18.07
2017-09-12T10:48:54.249Z,18
2017-09-12T10:50:03.429Z,18.03
2017-09-12T10:51:12.283Z,18.08
2017-09-12T10:52:21.277Z,18.11
2017-09-12T10:53:30.423Z,18.14
2017-09-12T10:54:39.270Z,18.17
2017-09-12T10:55:48.119Z,18.21
2017-09-12T10:56:56.970Z,18.29
2017-09-12T10:58:06.203Z,18.18
2017-09-12T10:59:15.388Z,18.27
2017-09-12T11:00:24.245Z,18.2
2017-09-12T11:01:33.092Z,18.26
2017-09-12T11:02:41.937Z,18.27
2017-09-12T11:03:50.837Z,18.21
2017-09-12T11:04:59.685Z,18.15
2017-09-12T11:06:08.613Z,18.3
2017-09-12T11:07:17.475Z,18.32
2017-09-12T11:08:26.325Z,18.36
2017-09-12T11:09:35.374Z,18.32
2017-09-12T11:10:44.219Z,18.32
2017-09-12T11:11:53.066Z,18.3
2017-09-12T11:13:01.918Z,18.33
2017-09-12T11:14:10.805Z,18.39
2017-09-12T11:15:20.055Z,18.41
2017-09-12T11:16:28.904Z,18.54
2017-09-12T11:17:38.100Z,18.6
2017-09-12T11:18:47.286Z,18.65
2017-09-12T11:19:56.178Z,18.81
2017-09-12T11:21:05.174Z,18.85
2017-09-12T11:22:14.053Z,18.84
2017-09-12T11:23:22.902Z,18.87
2017-09-12T11:24:31.755Z,18.92
2017-09-12T11:25:40.638Z,19
2017-09-12T11:26:49.669Z,18.98
2017-09-12T11:27:58.519Z,18.81
2017-09-12T11:29:07.371Z,18.72
2017-09-12T11:30:16.257Z,18.66
2017-09-12T11:31:25.127Z,18.58
2017-09-12T11:32:34.064Z,18.62
2017-09-12T11:33:42.973Z,18.54
2017-09-12T11:34:51.861Z,18.6
2017-09-12T11:36:00.707Z,18.6
2017-09-12T11:37:09.557Z,18.6
2017-09-12T11:38:18.706Z,18.72
2017-09-12T11:39:27.558Z,18.76
2017-09-12T11:40:36.725Z,18.67
2017-09-12T11:41:45.575Z,18.69
2017-09-12T11:42:54.422Z,18.63
2017-09-12T11:44:03.371Z,18.65
2017-09-12T11:45:12.221Z,18.65
2017-09-12T11:46:21.069Z,18.66
2017-09-12T11:47:30.264Z,18.75
2017-09-12T11:48:39.113Z,18.82
2017-09-12T11:49:48.013Z,18.95
2017-09-12T11:50:56.860Z,18.99
2017-09-12T11:52:05.706Z,19.13
2017-09-12T11:53:14.554Z,19.11
2017-09-12T11:54:23.403Z,19.13
2017-09-12T11:55:32.394Z,18.87
2017-09-12T11:56:41.249Z,18.69
2017-09-12T11:57:50.100Z,18.57
2017-09-12T11:58:58.951Z,17.89
2017-09-12T12:00:07.799Z,16.7
2017-09-12T12:01:16.746Z,16.05
2017-09-12T12:02:25.608Z,15.69
2017-09-12T12:03:34.788Z,15.44
2017-09-12T12:04:43.635Z,15.11
2017-09-12T12:05:52.486Z,15.02
2017-09-12T12:07:01.438Z,14.89
2017-09-12T12:08:10.309Z,14.88
2017-09-12T12:09:19.154Z,15.25
2017-09-12T12:10:28.337Z,15.29
2017-09-12T12:11:37.184Z,15.25
2017-09-12T12:12:46.128Z,15.2
2017-09-12T12:13:54.973Z,15.11
2017-09-12T12:15:03.821Z,15.27
2017-09-12T12:16:12.670Z,15.14
2017-09-12T12:17:21.566Z,15.32
2017-09-12T12:18:30.713Z,15.29
2017-09-12T12:19:39.558Z,15.25
2017-09-12T12:20:48.401Z,15.29
2017-09-12T12:21:57.246Z,15.34
2017-09-12T12:23:06.094Z,15.29
2017-09-12T12:24:15.062Z,15.21
2017-09-12T12:25:23.923Z,15.13
2017-09-12T12:26:32.801Z,14.98
2017-09-12T12:27:41.645Z,14.83
2017-09-12T12:28:50.490Z,14.89
2017-09-12T12:29:59.386Z,14.72
2017-09-12T12:31:08.235Z,14.62
2017-09-12T12:32:17.083Z,14.62
2017-09-12T12:33:25.937Z,14.64
2017-09-12T12:34:34.787Z,14.61
2017-09-12T12:35:43.733Z,14.61
2017-09-12T12:36:52.581Z,14.68
2017-09-12T12:38:01.426Z,14.65
2017-09-12T12:39:10.277Z,14.69
2017-09-12T12:40:19.124Z,14.65
2017-09-12T12:41:28.311Z,14.69
2017-09-12T12:42:37.160Z,14.83
2017-09-12T12:43:46.061Z,14.89
2017-09-12T12:44:55.250Z,14.86
2017-09-12T12:46:04.105Z,14.95
2017-09-12T12:47:12.968Z,15.11
2017-09-12T12:48:21.847Z,15.11
2017-09-12T12:49:31.042Z,15.28
2017-09-12T12:50:40.170Z,15.16
2017-09-12T12:51:49.114Z,15.31
2017-09-12T12:52:57.958Z,15.25
2017-09-12T12:54:06.804Z,15.25
2017-09-12T12:55:15.685Z,15.25
2017-09-12T12:56:24.582Z,15.25
2017-09-12T12:57:33.429Z,15.21
2017-09-12T12:58:42.427Z,15.34
2017-09-12T12:59:52.186Z,15.23
2017-09-12T13:01:01.031Z,15.31
2017-09-12T13:02:09.925Z,15.36
2017-09-12T13:03:18.775Z,15.38
2017-09-12T13:04:27.773Z,15.29
2017-09-12T13:05:36.622Z,15.39
2017-09-12T13:06:45.469Z,15.38
2017-09-12T13:07:54.331Z,15.36
2017-09-12T13:09:03.176Z,15.28
2017-09-12T13:10:12.096Z,15.29
2017-09-12T13:11:20.942Z,15.38
2017-09-12T13:12:29.792Z,15.21
2017-09-12T13:13:38.638Z,15.25
2017-09-12T13:14:47.489Z,15.17
2017-09-12T13:15:56.346Z,15.28
2017-09-12T13:17:05.199Z,15.25
2017-09-12T13:18:14.044Z,15.28
2017-09-12T13:19:22.907Z,15.35
2017-09-12T13:20:31.786Z,15.46
2017-09-12T13:21:40.664Z,15.51
2017-09-12T13:22:49.572Z,15.6
2017-09-12T13:23:58.752Z,15.83
2017-09-12T13:25:07.598Z,15.69
2017-09-12T13:26:16.448Z,15.71
2017-09-12T13:27:25.299Z,15.87
2017-09-12T13:28:34.147Z,15.93
2017-09-12T13:29:43.025Z,15.97
2017-09-12T13:30:51.928Z,15.92
2017-09-12T13:32:00.825Z,15.94
2017-09-12T13:33:09.698Z,16.01
2017-09-12T13:34:18.922Z,16.07
2017-09-12T13:35:28.345Z,16.11
2017-09-12T13:36:37.254Z,16.24
2017-09-12T13:37:46.204Z,16.15
2017-09-12T13:38:55.086Z,16.24
2017-09-12T13:40:03.936Z,16.28
2017-09-12T13:41:12.787Z,16.28
2017-09-12T13:42:21.634Z,16.31
2017-09-12T13:43:30.481Z,16.35
2017-09-12T13:44:39.330Z,16.48
2017-09-12T13:45:48.227Z,16.5
2017-09-12T13:46:57.140Z,16.68
2017-09-12T13:48:05.992Z,16.68
2017-09-12T13:49:14.853Z,16.7
2017-09-12T13:50:23.708Z,16.7
2017-09-12T13:51:32.565Z,16.75
2017-09-12T13:52:41.425Z,16.81
2017-09-12T13:53:50.333Z,16.83
2017-09-12T13:54:59.196Z,16.83
2017-09-12T13:56:08.147Z,16.91
2017-09-12T13:57:17.050Z,16.89
2017-09-12T13:58:25.903Z,16.91
2017-09-12T13:59:34.759Z,16.97
2017-09-12T14:00:43.626Z,17.14
2017-09-12T14:01:52.836Z,17.15
2017-09-12T14:03:01.892Z,17.21
2017-09-12T14:04:11.080Z,17.18
2017-09-12T14:05:19.937Z,17.25
2017-09-12T14:06:28.803Z,17.36
2017-09-12T14:07:37.649Z,17.51
2017-09-12T14:08:46.674Z,17.7
2017-09-12T14:09:55.536Z,17.86
2017-09-12T14:11:04.406Z,17.95
2017-09-12T14:12:13.263Z,18.1
2017-09-12T14:13:22.128Z,18.21
2017-09-12T14:14:31.131Z,18.3
2017-09-12T14:15:39.991Z,18.41
2017-09-12T14:16:48.846Z,18.57
2017-09-12T14:17:57.697Z,18.67
2017-09-12T14:19:06.552Z,18.85
2017-09-12T14:20:15.584Z,18.84
2017-09-12T14:21:24.470Z,18.78
2017-09-12T14:22:33.355Z,18.92
2017-09-12T14:23:42.260Z,19.08
2017-09-12T14:24:51.141Z,19.14
2017-09-12T14:26:00.119Z,19.33
2017-09-12T14:27:08.979Z,19.28
2017-09-12T14:28:17.839Z,19.29
2017-09-12T14:29:26.694Z,19.39
2017-09-12T14:30:35.563Z,19.41
2017-09-12T14:31:44.721Z,19.36
2017-09-12T14:32:53.598Z,19.44
2017-09-12T14:34:02.462Z,19.37
2017-09-12T14:35:11.323Z,19.51
2017-09-12T14:36:20.192Z,19.65
2017-09-12T14:37:29.216Z,19.73
2017-09-12T14:38:38.408Z,19.66
2017-09-12T14:39:47.267Z,19.59
2017-09-12T14:40:56.170Z,19.41
2017-09-12T14:42:05.028Z,19.61
2017-09-12T14:43:14.196Z,19.61
2017-09-12T14:44:23.386Z,19.43
2017-09-12T14:45:32.266Z,19.39
2017-09-12T14:46:41.461Z,19.39
2017-09-12T14:47:50.317Z,19.18
2017-09-12T14:48:59.362Z,19.1
2017-09-12T14:50:08.229Z,19.08
2017-09-12T14:51:17.687Z,18.9